Terminal Aerodrome Forecast
Issued by NWS

Home | Current Version | Previous Version | Text Only | Print | Product List | Glossary On
Versions: 1 2 3 4 5 6 7 8 9 10 11 12 13 14 15 16 17 18 19 20 21 22 23 24
000
FTUS45 KRIW 101121
TAFJAC
TAF
KJAC 101121Z 1012/1112 36005KT P6SM SKC
     FM101700 20008KT P6SM SKC
     FM102000 23012G19KT P6SM FEW110
     FM110000 26012G18KT P6SM FEW110
     FM110200 24006KT P6SM SKC=

USA.gov is the U.S. government's official web portal to all federal, state and local government web resources and services.